Time;durP1;ratioP1;P1;durP2;ratioP2;P2;SDS_P1;SDS_P2;PMS_P1;PMS_P2;Temp;Humidity;BMP_temperature;BMP_pressure;BME280_temperature;BME280_humidity;BME280_pressure;Samples;Min_cycle;Max_cycle;Signal;HPM_P1;HPM_P2
2024/01/13 00:01:19;;;;;;;;;31.67;30.33;;;;;;;;5072298;28;11542;-82
2024/01/13 00:03:47;;;;;;;;;30.67;26.33;;;;;;;;5075902;28;11561;-82
2024/01/13 00:06:15;;;;;;;;;36.33;28.00;;;;;;;;5070807;28;11584;-82
2024/01/13 00:08:42;;;;;;;;;31.00;24.50;;;;;;;;5069408;28;11578;-84
2024/01/13 00:11:10;;;;;;;;;21.25;10.75;;;;;;;;5063177;28;11741;-82
2024/01/13 00:13:38;;;;;;;;;37.00;28.25;;;;;;;;5062413;28;12398;-82
2024/01/13 00:16:06;;;;;;;;;28.75;17.00;;;;;;;;5057610;28;11746;-83
2024/01/13 00:18:33;;;;;;;;;27.50;22.00;;;;;;;;5067280;28;11566;-83
2024/01/13 00:21:00;;;;;;;;;24.50;24.50;;;;;;;;5065331;28;11712;-84
2024/01/13 00:23:29;;;;;;;;;25.75;21.75;;;;;;;;5066086;28;12422;-83
2024/01/13 00:25:56;;;;;;;;;20.00;19.50;;;;;;;;5073905;28;11578;-85
2024/01/13 00:28:24;;;;;;;;;23.25;20.25;;;;;;;;5072858;28;11585;-85
2024/01/13 00:30:53;;;;;;;;;28.00;23.50;;;;;;;;5072645;28;11517;-86
2024/01/13 00:33:20;;;;;;;;;24.00;23.00;;;;;;;;5070378;28;11545;-85
2024/01/13 00:35:49;;;;;;;;;20.50;18.25;;;;;;;;5065171;28;11555;-84
2024/01/13 00:38:17;;;;;;;;;24.00;17.50;;;;;;;;5068492;28;11563;-83
2024/01/13 00:40:44;;;;;;;;;22.00;18.75;;;;;;;;5071445;28;11681;-84
2024/01/13 00:43:11;;;;;;;;;30.00;22.50;;;;;;;;5064182;28;11556;-84
2024/01/13 00:45:38;;;;;;;;;22.00;19.50;;;;;;;;5066516;28;11634;-82
2024/01/13 00:48:07;;;;;;;;;21.25;19.25;;;;;;;;5069326;28;11583;-83
2024/01/13 00:50:35;;;;;;;;;13.75;13.75;;;;;;;;5065808;28;11567;-84
2024/01/13 00:53:02;;;;;;;;;20.00;16.75;;;;;;;;5073503;28;12339;-84
2024/01/13 00:55:30;;;;;;;;;17.25;17.25;;;;;;;;5065358;28;11570;-84
2024/01/13 00:57:57;;;;;;;;;18.00;16.25;;;;;;;;5071033;28;11704;-83
2024/01/13 01:00:24;;;;;;;;;18.50;16.00;;;;;;;;5058173;28;11546;-82
2024/01/13 01:02:51;;;;;;;;;27.00;21.00;;;;;;;;5068246;28;11546;-82
2024/01/13 01:05:20;;;;;;;;;24.75;22.00;;;;;;;;5062446;28;11589;-82
2024/01/13 01:07:48;;;;;;;;;17.50;13.25;;;;;;;;5069012;28;11701;-83
2024/01/13 01:10:15;;;;;;;;;21.00;19.50;;;;;;;;5070922;28;11556;-82
2024/01/13 01:12:42;;;;;;;;;18.25;15.75;;;;;;;;5065096;28;11565;-83
2024/01/13 01:15:10;;;;;;;;;30.75;20.00;;;;;;;;5064345;28;11563;-83
2024/01/13 01:17:37;;;;;;;;;21.00;18.25;;;;;;;;5068532;28;11585;-82
2024/01/13 01:20:05;;;;;;;;;22.25;17.25;;;;;;;;5070856;28;11562;-82
2024/01/13 01:22:34;;;;;;;;;21.33;15.00;;;;;;;;5059031;28;11562;-82
2024/01/13 01:25:01;;;;;;;;;18.50;18.50;;;;;;;;5073005;28;11549;-82
2024/01/13 01:27:29;;;;;;;;;16.50;16.50;;;;;;;;5075041;28;12419;-82
2024/01/13 01:29:56;;;;;;;;;17.50;16.75;;;;;;;;5073163;28;11630;-84
2024/01/13 01:32:23;;;;;;;;;18.75;13.50;;;;;;;;5066238;28;11528;-82
2024/01/13 01:34:51;;;;;;;;;17.75;15.25;;;;;;;;5073691;28;11707;-84
2024/01/13 01:37:18;;;;;;;;;19.50;18.25;;;;;;;;5068304;28;11587;-82
2024/01/13 01:39:46;;;;;;;;;23.50;18.00;;;;;;;;5074277;28;11691;-83
2024/01/13 01:42:14;;;;;;;;;18.00;14.00;;;;;;;;5068184;28;11575;-85
2024/01/13 01:44:41;;;;;;;;;19.50;17.00;;;;;;;;5065482;28;11563;-85
2024/01/13 01:47:10;;;;;;;;;16.00;13.50;;;;;;;;5073974;28;11549;-85
2024/01/13 01:49:38;;;;;;;;;17.50;17.00;;;;;;;;5071693;28;11664;-85
2024/01/13 01:52:06;;;;;;;;;20.00;18.25;;;;;;;;5055328;28;11592;-85
2024/01/13 01:54:34;;;;;;;;;25.50;15.75;;;;;;;;5064818;28;11534;-85
2024/01/13 01:57:03;;;;;;;;;17.25;17.25;;;;;;;;5063388;28;12379;-86
2024/01/13 01:59:30;;;;;;;;;20.75;16.50;;;;;;;;5064874;28;11621;-85
2024/01/13 02:02:01;;;;;;;;;19.00;17.25;;;;;;;;5060824;28;11531;-83
2024/01/13 02:04:28;;;;;;;;;19.00;14.25;;;;;;;;5067601;28;11669;-83
2024/01/13 02:06:55;;;;;;;;;17.00;15.00;;;;;;;;5068730;28;11564;-84
2024/01/13 02:09:23;;;;;;;;;23.75;22.25;;;;;;;;5057114;28;11580;-85
2024/01/13 02:11:50;;;;;;;;;19.75;17.25;;;;;;;;5063976;28;11704;-84
2024/01/13 02:14:19;;;;;;;;;17.75;15.25;;;;;;;;5067705;28;11601;-85
2024/01/13 02:16:48;;;;;;;;;20.00;17.00;;;;;;;;5064466;28;11570;-84
2024/01/13 02:19:15;;;;;;;;;36.67;26.67;;;;;;;;5060276;28;11533;-83
2024/01/13 02:21:44;;;;;;;;;27.75;23.50;;;;;;;;5056887;28;12361;-83
2024/01/13 02:24:11;;;;;;;;;16.50;14.25;;;;;;;;5069247;28;11605;-84
2024/01/13 02:26:39;;;;;;;;;14.50;10.50;;;;;;;;5068697;28;11621;-83
2024/01/13 02:29:06;;;;;;;;;19.50;17.00;;;;;;;;5069670;28;11688;-84
2024/01/13 02:31:34;;;;;;;;;14.00;14.00;;;;;;;;5069211;28;11603;-85
2024/01/13 02:34:01;;;;;;;;;24.00;22.00;;;;;;;;5071441;28;11731;-81
2024/01/13 02:36:28;;;;;;;;;20.75;17.75;;;;;;;;5081196;28;11738;-80
2024/01/13 02:39:00;;;;;;;;;16.75;14.25;;;;;;;;5078093;28;11700;-84
2024/01/13 02:41:27;;;;;;;;;18.50;18.50;;;;;;;;5069459;28;11538;-83
2024/01/13 02:43:54;;;;;;;;;25.25;20.00;;;;;;;;5069263;28;11551;-85
2024/01/13 02:46:21;;;;;;;;;13.75;13.00;;;;;;;;5067630;28;11591;-83
2024/01/13 02:48:53;;;;;;;;;19.25;18.00;;;;;;;;5069004;28;11682;-86
2024/01/13 02:51:20;;;;;;;;;20.50;16.00;;;;;;;;5068604;28;11553;-82
2024/01/13 02:53:48;;;;;;;;;20.25;19.25;;;;;;;;5064934;28;11562;-82
2024/01/13 02:56:16;;;;;;;;;19.50;17.25;;;;;;;;5069396;28;11534;-83
2024/01/13 02:58:44;;;;;;;;;17.25;12.25;;;;;;;;5060869;28;11714;-83
2024/01/13 03:01:11;;;;;;;;;16.75;15.00;;;;;;;;5064324;28;11638;-81
2024/01/13 03:03:38;;;;;;;;;18.00;13.75;;;;;;;;5063955;28;11555;-81
2024/01/13 03:06:06;;;;;;;;;21.75;14.00;;;;;;;;5060006;28;12362;-81
2024/01/13 03:08:33;;;;;;;;;14.00;14.00;;;;;;;;5072606;28;11573;-81
2024/01/13 03:11:01;;;;;;;;;16.00;14.50;;;;;;;;5065703;28;11555;-82
2024/01/13 03:13:32;;;;;;;;;16.00;16.00;;;;;;;;5075530;28;11538;-82
2024/01/13 03:16:03;;;;;;;;;19.75;17.75;;;;;;;;5065890;28;11600;-81
2024/01/13 03:18:30;;;;;;;;;26.00;20.25;;;;;;;;5073294;28;11575;-81
2024/01/13 03:20:57;;;;;;;;;16.00;12.00;;;;;;;;5065282;28;11683;-82
2024/01/13 03:23:25;;;;;;;;;16.25;12.00;;;;;;;;5062447;28;11620;-81
2024/01/13 03:25:52;;;;;;;;;25.00;16.50;;;;;;;;5070974;28;11551;-83
2024/01/13 03:28:19;;;;;;;;;20.00;18.75;;;;;;;;5070393;28;11539;-82
2024/01/13 03:30:48;;;;;;;;;16.00;9.00;;;;;;;;5071329;28;11603;-83
2024/01/13 03:33:16;;;;;;;;;15.25;15.25;;;;;;;;5065548;28;11676;-84
2024/01/13 03:35:43;;;;;;;;;18.00;15.00;;;;;;;;5070748;28;11673;-83
2024/01/13 03:38:10;;;;;;;;;26.50;25.50;;;;;;;;5068634;28;12367;-85
2024/01/13 03:40:37;;;;;;;;;19.75;18.25;;;;;;;;5061295;28;11600;-83
2024/01/13 03:43:05;;;;;;;;;23.00;21.75;;;;;;;;5060834;28;11721;-86
2024/01/13 03:45:32;;;;;;;;;17.00;16.00;;;;;;;;5065887;28;11601;-86
2024/01/13 03:48:01;;;;;;;;;22.00;17.75;;;;;;;;5062751;28;11548;-86
2024/01/13 03:50:28;;;;;;;;;18.00;16.00;;;;;;;;5063027;28;11558;-86
2024/01/13 03:52:59;;;;;;;;;13.75;13.00;;;;;;;;5064617;28;11581;-84
2024/01/13 03:55:26;;;;;;;;;23.25;17.75;;;;;;;;5057796;28;11532;-85
2024/01/13 03:57:53;;;;;;;;;17.25;14.75;;;;;;;;5055257;28;12413;-82
2024/01/13 04:00:21;;;;;;;;;23.25;19.50;;;;;;;;5062044;28;11584;-83
2024/01/13 04:02:48;;;;;;;;;12.25;12.25;;;;;;;;5062313;28;11686;-83
2024/01/13 04:05:17;;;;;;;;;29.75;24.00;;;;;;;;5068131;28;11596;-84
2024/01/13 04:07:45;;;;;;;;;17.25;14.25;;;;;;;;5068235;28;11588;-83
2024/01/13 04:10:12;;;;;;;;;12.00;12.00;;;;;;;;5068200;28;11609;-84
2024/01/13 04:12:43;;;;;;;;;20.75;14.75;;;;;;;;5069188;28;12371;-83
2024/01/13 04:15:12;;;;;;;;;28.00;18.25;;;;;;;;5071089;28;11557;-85
2024/01/13 04:17:39;;;;;;;;;18.25;14.75;;;;;;;;5071005;28;11598;-83
2024/01/13 04:20:07;;;;;;;;;27.50;20.25;;;;;;;;5071153;28;11556;-86
2024/01/13 04:22:36;;;;;;;;;20.25;20.25;;;;;;;;5071552;28;11584;-86
2024/01/13 04:25:04;;;;;;;;;19.50;18.50;;;;;;;;5070405;28;11557;-85
2024/01/13 04:27:31;;;;;;;;;21.75;18.75;;;;;;;;5067387;28;11569;-84
2024/01/13 04:29:58;;;;;;;;;17.00;16.00;;;;;;;;5063585;28;11545;-81
2024/01/13 04:32:26;;;;;;;;;20.00;16.00;;;;;;;;5070286;28;11514;-82
2024/01/13 04:34:53;;;;;;;;;18.00;16.50;;;;;;;;5068835;28;11685;-81
2024/01/13 04:37:20;;;;;;;;;17.00;17.00;;;;;;;;5068894;28;11592;-81
2024/01/13 04:39:49;;;;;;;;;22.00;18.00;;;;;;;;5071998;28;11551;-84
2024/01/13 04:42:16;;;;;;;;;17.75;15.00;;;;;;;;5068177;28;11572;-84
2024/01/13 04:44:43;;;;;;;;;19.50;14.50;;;;;;;;5064308;28;11583;-82
2024/01/13 04:47:11;;;;;;;;;15.00;12.50;;;;;;;;5067703;28;11543;-84
2024/01/13 04:49:38;;;;;;;;;16.00;14.25;;;;;;;;5053851;28;11674;-83
2024/01/13 04:52:06;;;;;;;;;17.75;13.75;;;;;;;;5075072;28;11531;-83
2024/01/13 04:54:33;;;;;;;;;10.25;10.25;;;;;;;;5075693;28;11623;-80
2024/01/13 04:57:02;;;;;;;;;13.75;10.75;;;;;;;;5067461;28;11544;-81
2024/01/13 04:59:31;;;;;;;;;14.00;14.00;;;;;;;;5064355;28;11581;-80
2024/01/13 05:02:02;;;;;;;;;7.50;4.50;;;;;;;;5060920;28;11485;-80
2024/01/13 05:04:30;;;;;;;;;53.00;46.33;;;;;;;;5071846;28;11593;-82
2024/01/13 05:06:57;;;;;;;;;16.50;14.25;;;;;;;;5067971;28;8973;-81
2024/01/13 05:09:25;;;;;;;;;20.00;15.00;;;;;;;;5063442;28;11572;-83
2024/01/13 05:11:52;;;;;;;;;17.00;14.25;;;;;;;;5072509;28;11593;-82
2024/01/13 05:14:20;;;;;;;;;13.00;13.00;;;;;;;;5067295;28;11578;-85
2024/01/13 05:16:48;;;;;;;;;12.50;12.50;;;;;;;;5067094;28;11551;-85
2024/01/13 05:19:16;;;;;;;;;13.00;9.00;;;;;;;;5068453;28;11515;-85
2024/01/13 05:21:44;;;;;;;;;16.75;16.75;;;;;;;;5064283;28;11586;-86
2024/01/13 05:24:14;;;;;;;;;15.00;13.00;;;;;;;;5069831;28;11551;-84
2024/01/13 05:26:41;;;;;;;;;10.00;10.00;;;;;;;;5066563;28;12274;-83
2024/01/13 05:29:09;;;;;;;;;20.50;18.50;;;;;;;;5067762;28;11642;-83
2024/01/13 05:31:38;;;;;;;;;15.67;13.00;;;;;;;;5065408;28;11475;-84
2024/01/13 05:34:05;;;;;;;;;14.50;14.50;;;;;;;;5076596;28;11554;-80
2024/01/13 05:36:35;;;;;;;;;19.00;17.00;;;;;;;;5082731;28;11570;-82
2024/01/13 05:39:02;;;;;;;;;13.50;10.25;;;;;;;;5068428;28;11700;-81
2024/01/13 05:41:29;;;;;;;;;24.75;18.50;;;;;;;;5068530;28;11578;-83
2024/01/13 05:43:57;;;;;;;;;18.50;14.25;;;;;;;;5070332;28;11547;-81
2024/01/13 05:46:24;;;;;;;;;14.75;14.75;;;;;;;;5064038;28;11562;-82
2024/01/13 05:48:53;;;;;;;;;17.50;13.75;;;;;;;;5062745;28;12319;-83
2024/01/13 05:51:20;;;;;;;;;19.00;15.25;;;;;;;;5069262;28;11671;-81
2024/01/13 05:53:48;;;;;;;;;19.00;14.00;;;;;;;;5069182;28;11687;-83
2024/01/13 05:56:15;;;;;;;;;13.25;13.00;;;;;;;;5069890;28;11531;-82
2024/01/13 05:58:42;;;;;;;;;12.00;11.50;;;;;;;;5050007;28;12475;-82
2024/01/13 06:01:10;;;;;;;;;15.00;13.50;;;;;;;;5069043;28;11460;-82
2024/01/13 06:03:37;;;;;;;;;14.00;14.00;;;;;;;;5069025;28;11559;-83
2024/01/13 06:06:08;;;;;;;;;15.50;14.25;;;;;;;;5069337;28;11559;-82
2024/01/13 06:08:36;;;;;;;;;17.25;13.25;;;;;;;;5058671;28;11668;-84
2024/01/13 06:11:03;;;;;;;;;14.25;12.75;;;;;;;;5067688;28;11533;-81
2024/01/13 06:13:31;;;;;;;;;13.00;13.00;;;;;;;;5068925;28;11669;-81
2024/01/13 06:16:00;;;;;;;;;14.75;14.00;;;;;;;;5069091;28;11542;-81
2024/01/13 06:18:28;;;;;;;;;13.00;10.25;;;;;;;;5068840;28;11674;-81
2024/01/13 06:20:55;;;;;;;;;22.00;15.00;;;;;;;;5068907;28;11566;-81
2024/01/13 06:23:24;;;;;;;;;14.75;14.25;;;;;;;;5069717;28;11828;-80
2024/01/13 06:25:51;;;;;;;;;13.75;13.75;;;;;;;;5068374;28;11549;-81
2024/01/13 06:28:19;;;;;;;;;20.75;18.25;;;;;;;;5069241;28;11607;-82
2024/01/13 06:30:46;;;;;;;;;14.50;12.00;;;;;;;;5068206;28;11496;-80
2024/01/13 06:33:14;;;;;;;;;18.50;15.50;;;;;;;;5068576;28;11526;-81
2024/01/13 06:35:42;;;;;;;;;19.25;17.25;;;;;;;;5069108;28;12329;-82
2024/01/13 06:38:09;;;;;;;;;10.25;9.25;;;;;;;;5069867;28;11722;-82
2024/01/13 06:40:37;;;;;;;;;22.50;21.00;;;;;;;;5068170;28;11622;-80
2024/01/13 06:43:10;;;;;;;;;16.75;15.75;;;;;;;;5073518;28;11561;-72
2024/01/13 06:45:38;;;;;;;;;14.75;13.00;;;;;;;;5077065;28;11547;-75
2024/01/13 06:48:05;;;;;;;;;17.00;15.25;;;;;;;;5074276;28;11630;-74
2024/01/13 06:50:32;;;;;;;;;16.50;12.25;;;;;;;;5064140;28;11679;-74
2024/01/13 06:52:59;;;;;;;;;14.00;14.00;;;;;;;;5065863;28;11559;-74
2024/01/13 06:55:27;;;;;;;;;18.00;15.50;;;;;;;;5070309;28;11539;-73
2024/01/13 06:57:55;;;;;;;;;19.00;14.25;;;;;;;;5071895;28;11541;-73
2024/01/13 07:00:22;;;;;;;;;21.75;17.00;;;;;;;;5068511;28;11536;-75
2024/01/13 07:02:50;;;;;;;;;18.00;13.25;;;;;;;;5067382;28;11529;-72
2024/01/13 07:05:17;;;;;;;;;20.75;14.25;;;;;;;;5060725;28;11809;-74
2024/01/13 07:07:44;;;;;;;;;19.25;18.00;;;;;;;;5069022;28;11659;-72
2024/01/13 07:10:11;;;;;;;;;20.00;16.67;;;;;;;;5068656;28;11548;-73
2024/01/13 07:12:39;;;;;;;;;24.00;19.33;;;;;;;;5066804;28;11512;-75
2024/01/13 07:15:14;;;;;;;;;24.25;18.75;;;;;;;;5067660;28;11586;-74
2024/01/13 07:17:43;;;;;;;;;21.50;15.00;;;;;;;;5051530;28;11569;-73
2024/01/13 07:20:10;;;;;;;;;7.25;6.25;;;;;;;;5052785;28;11564;-74
2024/01/13 07:22:37;;;;;;;;;17.50;13.75;;;;;;;;5058151;28;12257;-72
2024/01/13 07:25:05;;;;;;;;;14.75;14.75;;;;;;;;5068021;28;11543;-74
2024/01/13 07:27:33;;;;;;;;;17.75;16.50;;;;;;;;5068498;28;11615;-73
2024/01/13 07:30:00;;;;;;;;;17.50;12.25;;;;;;;;5070024;28;11654;-74
2024/01/13 07:32:30;;;;;;;;;16.25;13.50;;;;;;;;5069004;28;11506;-75
2024/01/13 07:35:02;;;;;;;;;21.00;14.75;;;;;;;;5069862;28;11557;-76
2024/01/13 07:37:31;;;;;;;;;11.00;11.00;;;;;;;;5068048;28;12244;-74
2024/01/13 07:39:58;;;;;;;;;11.50;11.50;;;;;;;;5068613;28;11504;-75
2024/01/13 07:42:26;;;;;;;;;14.00;13.00;;;;;;;;5067807;28;11535;-75
2024/01/13 07:44:53;;;;;;;;;21.50;18.50;;;;;;;;5069758;28;11567;-75
2024/01/13 07:47:20;;;;;;;;;19.00;15.00;;;;;;;;5072108;28;11556;-83
2024/01/13 07:49:52;;;;;;;;;22.00;16.00;;;;;;;;5071327;28;11589;-80
2024/01/13 07:52:19;;;;;;;;;12.50;9.50;;;;;;;;5072037;28;11555;-77
2024/01/13 07:54:47;;;;;;;;;14.33;13.00;;;;;;;;5071481;28;11569;-82
2024/01/13 07:57:27;;;;;;;;;11.33;11.33;;;;;;;;5072343;28;11535;-81
2024/01/13 08:00:41;;;;;;;;;17.33;17.33;;;;;;;;5064534;28;11545;-76
2024/01/13 08:03:08;;;;;;;;;17.67;14.00;;;;;;;;5056175;28;11499;-80
2024/01/13 08:05:39;;;;;;;;;21.67;19.67;;;;;;;;5073035;28;11652;-81
2024/01/13 08:08:07;;;;;;;;;17.33;14.33;;;;;;;;5070441;28;11594;-79
2024/01/13 08:10:36;;;;;;;;;13.50;13.50;;;;;;;;5070618;28;11657;-82
2024/01/13 08:13:04;;;;;;;;;19.00;16.00;;;;;;;;5070239;28;11512;-84
2024/01/13 08:15:32;;;;;;;;;18.33;16.67;;;;;;;;5072064;28;11557;-79
2024/01/13 08:17:59;;;;;;;;;17.00;15.25;;;;;;;;5063469;28;11549;-84
2024/01/13 08:20:26;;;;;;;;;19.00;15.67;;;;;;;;5071369;28;11669;-82
2024/01/13 08:22:55;;;;;;;;;17.50;15.75;;;;;;;;5064910;28;11704;-82
2024/01/13 08:25:22;;;;;;;;;15.67;15.00;;;;;;;;5065915;28;11568;-79
2024/01/13 08:27:50;;;;;;;;;24.25;16.25;;;;;;;;5065849;28;11548;-80
2024/01/13 08:30:17;;;;;;;;;13.00;12.67;;;;;;;;5063908;28;11610;-80
2024/01/13 08:32:44;;;;;;;;;21.00;17.67;;;;;;;;5074344;28;11538;-80
2024/01/13 08:35:11;;;;;;;;;20.00;17.33;;;;;;;;5064130;28;11684;-83
2024/01/13 08:37:39;;;;;;;;;21.00;17.00;;;;;;;;5074455;28;11547;-77
2024/01/13 08:40:09;;;;;;;;;19.67;16.00;;;;;;;;5070480;28;11601;-77
2024/01/13 08:42:37;;;;;;;;;14.75;12.75;;;;;;;;5073956;28;11639;-74
2024/01/13 08:45:05;;;;;;;;;13.50;11.00;;;;;;;;5068614;28;11577;-77
2024/01/13 08:47:32;;;;;;;;;18.50;13.25;;;;;;;;5072009;28;11541;-78
2024/01/13 08:50:00;;;;;;;;;13.00;11.75;;;;;;;;5070352;28;11547;-78
2024/01/13 08:52:28;;;;;;;;;14.75;14.75;;;;;;;;5067380;28;11565;-80
2024/01/13 08:54:55;;;;;;;;;22.00;17.33;;;;;;;;5069744;28;11656;-75
2024/01/13 08:57:24;;;;;;;;;14.25;13.75;;;;;;;;5065794;28;11623;-77
2024/01/13 08:59:52;;;;;;;;;17.50;14.25;;;;;;;;5056446;28;11528;-76
2024/01/13 09:02:19;;;;;;;;;12.50;12.50;;;;;;;;5058883;28;11520;-77
2024/01/13 09:04:46;;;;;;;;;9.00;9.00;;;;;;;;5066363;28;11589;-78
2024/01/13 09:07:13;;;;;;;;;9.75;9.75;;;;;;;;5069950;28;11550;-76
2024/01/13 09:09:40;;;;;;;;;23.67;15.67;;;;;;;;5069787;28;11658;-74
2024/01/13 09:12:08;;;;;;;;;13.67;13.00;;;;;;;;5069784;28;11613;-77
2024/01/13 09:14:38;;;;;;;;;22.33;22.33;;;;;;;;5068630;28;11530;-76
2024/01/13 09:17:05;;;;;;;;;13.33;11.33;;;;;;;;5067918;28;11663;-75
2024/01/13 09:19:33;;;;;;;;;19.50;15.75;;;;;;;;5072066;28;12312;-76
2024/01/13 09:22:00;;;;;;;;;15.00;15.00;;;;;;;;5072867;28;11558;-74
2024/01/13 09:24:27;;;;;;;;;21.75;13.00;;;;;;;;5069829;28;11653;-75
2024/01/13 09:26:55;;;;;;;;;21.00;18.00;;;;;;;;5069522;28;11571;-74
2024/01/13 09:29:22;;;;;;;;;16.25;15.25;;;;;;;;5069226;28;11578;-76
2024/01/13 09:31:51;;;;;;;;;14.75;14.75;;;;;;;;5067376;28;12363;-75
2024/01/13 09:34:21;;;;;;;;;29.00;22.50;;;;;;;;5068072;28;11557;-76
2024/01/13 09:36:49;;;;;;;;;15.50;15.50;;;;;;;;5068937;28;12385;-74
2024/01/13 09:39:16;;;;;;;;;15.25;8.75;;;;;;;;5063024;28;11552;-74
2024/01/13 09:41:46;;;;;;;;;21.75;16.50;;;;;;;;5063756;28;11573;-76
2024/01/13 09:44:20;;;;;;;;;16.00;15.75;;;;;;;;5068519;28;11611;-73
2024/01/13 09:46:48;;;;;;;;;21.33;20.00;;;;;;;;5055828;28;11587;-74
2024/01/13 09:49:19;;;;;;;;;26.67;16.00;;;;;;;;5068739;28;11544;-75
2024/01/13 09:51:46;;;;;;;;;13.50;12.00;;;;;;;;5068351;28;11582;-75
2024/01/13 09:54:18;;;;;;;;;21.00;18.00;;;;;;;;5068342;28;11526;-75
2024/01/13 09:56:47;;;;;;;;;28.67;27.00;;;;;;;;5066398;28;12397;-78
2024/01/13 09:59:14;;;;;;;;;33.00;27.33;;;;;;;;5065033;28;11715;-73
2024/01/13 10:01:42;;;;;;;;;22.67;21.67;;;;;;;;5057622;28;8802;-75
2024/01/13 10:04:10;;;;;;;;;20.67;17.67;;;;;;;;5061225;28;11605;-74
2024/01/13 10:06:39;;;;;;;;;23.67;21.33;;;;;;;;5068531;28;11637;-77
2024/01/13 10:09:10;;;;;;;;;28.33;28.33;;;;;;;;5069791;28;12385;-74
2024/01/13 10:11:40;;;;;;;;;30.00;22.33;;;;;;;;5070090;28;8851;-77
2024/01/13 10:14:09;;;;;;;;;22.00;19.67;;;;;;;;5071004;28;11572;-77
2024/01/13 10:16:37;;;;;;;;;37.67;35.67;;;;;;;;5063396;28;11591;-75
2024/01/13 10:19:05;;;;;;;;;33.33;28.00;;;;;;;;5070566;28;8859;-76
2024/01/13 10:21:33;;;;;;;;;20.33;20.00;;;;;;;;5070468;28;8881;-78
2024/01/13 10:24:01;;;;;;;;;17.67;15.67;;;;;;;;5068257;28;11617;-77
2024/01/13 10:26:30;;;;;;;;;27.33;18.33;;;;;;;;5068084;28;11550;-77
2024/01/13 10:28:57;;;;;;;;;29.67;22.33;;;;;;;;5055651;28;11552;-76
2024/01/13 10:31:25;;;;;;;;;30.67;27.00;;;;;;;;5061224;28;11532;-77
2024/01/13 10:33:53;;;;;;;;;20.33;13.67;;;;;;;;5066211;28;8831;-76
2024/01/13 10:36:22;;;;;;;;;19.67;19.67;;;;;;;;5064941;28;11596;-78
2024/01/13 10:38:49;;;;;;;;;14.33;13.33;;;;;;;;5067098;28;11580;-76
2024/01/13 10:41:30;;;;;;;;;17.00;13.67;;;;;;;;5061916;28;11624;-80
2024/01/13 10:44:01;;;;;;;;;20.67;15.67;;;;;;;;5066800;28;11551;-75
2024/01/13 10:46:30;;;;;;;;;14.33;13.00;;;;;;;;5067912;28;11543;-75
2024/01/13 10:49:02;;;;;;;;;17.33;15.67;;;;;;;;5064715;28;11554;-76
2024/01/13 10:51:34;;;;;;;;;23.33;20.33;;;;;;;;5068080;28;11548;-78
2024/01/13 10:54:01;;;;;;;;;14.33;12.00;;;;;;;;5068063;28;11574;-74
2024/01/13 10:56:30;;;;;;;;;17.33;16.00;;;;;;;;5058779;28;12585;-75
2024/01/13 10:59:02;;;;;;;;;17.67;13.67;;;;;;;;5068314;28;11569;-77
2024/01/13 11:01:29;;;;;;;;;17.33;17.00;;;;;;;;5054956;28;11500;-75
2024/01/13 11:04:01;;;;;;;;;23.67;18.33;;;;;;;;5059477;28;11644;-78
2024/01/13 11:06:30;;;;;;;;;27.00;24.33;;;;;;;;5067458;28;12332;-76
2024/01/13 11:08:58;;;;;;;;;25.67;20.67;;;;;;;;5070235;28;8870;-80
2024/01/13 11:11:28;;;;;;;;;26.00;19.67;;;;;;;;5070738;28;11583;-74
2024/01/13 11:14:01;;;;;;;;;17.67;15.00;;;;;;;;5070596;28;11557;-76
2024/01/13 11:16:29;;;;;;;;;22.33;17.00;;;;;;;;5067150;28;11681;-76
2024/01/13 11:19:02;;;;;;;;;31.00;25.33;;;;;;;;5066803;28;11696;-76
2024/01/13 11:21:32;;;;;;;;;28.00;19.33;;;;;;;;5068600;28;11603;-77
2024/01/13 11:24:01;;;;;;;;;30.00;22.33;;;;;;;;5068402;28;11939;-78
2024/01/13 11:26:35;;;;;;;;;26.33;21.33;;;;;;;;5067778;28;11625;-80
2024/01/13 11:29:09;;;;;;;;;22.33;19.33;;;;;;;;5067075;28;11578;-77
2024/01/13 11:31:39;;;;;;;;;25.33;21.00;;;;;;;;5067336;28;11518;-79
2024/01/13 11:34:09;;;;;;;;;13.33;11.00;;;;;;;;5067247;28;11715;-76
2024/01/13 11:36:41;;;;;;;;;22.00;19.00;;;;;;;;5067962;28;11587;-78
2024/01/13 11:39:10;;;;;;;;;26.67;21.00;;;;;;;;5067581;28;11572;-77
2024/01/13 11:41:41;;;;;;;;;24.33;20.33;;;;;;;;5066945;28;11677;-79
2024/01/13 11:44:11;;;;;;;;;19.00;16.33;;;;;;;;5055423;28;12435;-80
2024/01/13 11:46:42;;;;;;;;;35.00;24.00;;;;;;;;5067602;28;9637;-76
2024/01/13 11:49:11;;;;;;;;;25.33;22.33;;;;;;;;5068373;28;8969;-77
2024/01/13 11:51:57;;;;;;;;;31.33;28.00;;;;;;;;5067464;28;12374;-78
2024/01/13 11:54:24;;;;;;;;;34.67;23.67;;;;;;;;5068429;28;8873;-80
2024/01/13 11:56:52;;;;;;;;;20.67;18.00;;;;;;;;5067558;28;11587;-79
2024/01/13 11:59:21;;;;;;;;;32.67;29.33;;;;;;;;5068107;28;11568;-78
2024/01/13 12:01:48;;;;;;;;;31.00;22.67;;;;;;;;5063115;28;12363;-78
2024/01/13 12:04:17;;;;;;;;;26.33;22.00;;;;;;;;5061959;28;11575;-77
2024/01/13 12:06:48;;;;;;;;;23.33;23.00;;;;;;;;5068277;28;11565;-78
2024/01/13 12:09:19;;;;;;;;;21.33;19.00;;;;;;;;5071201;28;11647;-76
2024/01/13 12:11:54;;;;;;;;;35.67;30.00;;;;;;;;5071444;28;11564;-79
2024/01/13 12:14:28;;;;;;;;;24.67;22.00;;;;;;;;5075157;28;8884;-79
2024/01/13 12:17:02;;;;;;;;;32.00;23.33;;;;;;;;5074108;28;11636;-77
2024/01/13 12:19:32;;;;;;;;;38.33;32.00;;;;;;;;5071202;28;8858;-77
2024/01/13 12:21:59;;;;;;;;;29.67;22.67;;;;;;;;5059034;28;8845;-80
2024/01/13 12:24:27;;;;;;;;;31.33;24.67;;;;;;;;5061348;28;11721;-80
2024/01/13 12:26:54;;;;;;;;;27.33;24.33;;;;;;;;5067914;28;11574;-76
2024/01/13 12:29:24;;;;;;;;;20.33;19.33;;;;;;;;5071649;28;11572;-75
2024/01/13 12:31:55;;;;;;;;;27.33;22.33;;;;;;;;5061167;28;11669;-77
2024/01/13 12:34:22;;;;;;;;;21.67;21.67;;;;;;;;5071113;28;11586;-76
2024/01/13 12:36:50;;;;;;;;;26.67;22.67;;;;;;;;5070903;28;12505;-75
2024/01/13 12:39:18;;;;;;;;;20.00;17.67;;;;;;;;5065860;28;12443;-77
2024/01/13 12:41:46;;;;;;;;;26.67;26.33;;;;;;;;5064785;28;11556;-76
2024/01/13 12:44:13;;;;;;;;;37.67;32.33;;;;;;;;5071006;28;8886;-79
2024/01/13 12:46:43;;;;;;;;;23.33;22.67;;;;;;;;5060842;28;8855;-75
2024/01/13 12:49:14;;;;;;;;;19.33;17.33;;;;;;;;5063397;28;11557;-74
2024/01/13 12:51:42;;;;;;;;;21.33;18.33;;;;;;;;5067594;28;11559;-74
2024/01/13 12:54:10;;;;;;;;;26.00;24.00;;;;;;;;5070833;28;11573;-74
2024/01/13 12:56:37;;;;;;;;;23.67;23.67;;;;;;;;5072219;28;8870;-75
2024/01/13 12:59:05;;;;;;;;;20.67;17.67;;;;;;;;5074206;28;11589;-75
2024/01/13 13:01:32;;;;;;;;;23.67;17.67;;;;;;;;5070403;28;11546;-76
2024/01/13 13:04:03;;;;;;;;;26.33;20.33;;;;;;;;5063867;28;11570;-78
2024/01/13 13:06:33;;;;;;;;;19.67;17.00;;;;;;;;5070439;28;11541;-79
2024/01/13 13:09:02;;;;;;;;;31.00;24.33;;;;;;;;5069351;28;11541;-75
2024/01/13 13:11:30;;;;;;;;;29.67;23.33;;;;;;;;5068487;28;8858;-78
2024/01/13 13:13:58;;;;;;;;;23.00;20.33;;;;;;;;5069574;28;11698;-77
2024/01/13 13:16:25;;;;;;;;;25.00;22.33;;;;;;;;5069160;28;11572;-77
2024/01/13 13:18:52;;;;;;;;;23.00;20.67;;;;;;;;5070403;28;8993;-80
2024/01/13 13:21:19;;;;;;;;;28.00;25.67;;;;;;;;5069504;28;8843;-76
2024/01/13 13:23:49;;;;;;;;;29.67;21.33;;;;;;;;5067623;28;11743;-80
2024/01/13 13:26:17;;;;;;;;;33.00;29.00;;;;;;;;5057678;28;11580;-82
2024/01/13 13:28:46;;;;;;;;;31.00;25.67;;;;;;;;5067473;28;8910;-81
2024/01/13 13:31:13;;;;;;;;;26.67;22.67;;;;;;;;5069563;28;8834;-80
2024/01/13 13:33:40;;;;;;;;;33.33;28.67;;;;;;;;5069328;28;11605;-80
2024/01/13 13:36:08;;;;;;;;;24.33;19.67;;;;;;;;5068720;28;8855;-81
2024/01/13 13:38:36;;;;;;;;;24.33;20.33;;;;;;;;5067353;28;11567;-80
2024/01/13 13:41:05;;;;;;;;;35.00;26.33;;;;;;;;5069620;28;11582;-80
2024/01/13 13:43:32;;;;;;;;;26.33;23.00;;;;;;;;5067533;28;8846;-78
2024/01/13 13:46:00;;;;;;;;;26.67;20.67;;;;;;;;5069204;28;11574;-78
2024/01/13 13:48:28;;;;;;;;;22.33;22.33;;;;;;;;5068709;28;11568;-80
2024/01/13 13:50:55;;;;;;;;;35.67;28.33;;;;;;;;5068120;28;11600;-78
2024/01/13 13:53:22;;;;;;;;;34.67;28.00;;;;;;;;5068636;28;12375;-78
2024/01/13 13:55:50;;;;;;;;;33.00;27.33;;;;;;;;5070210;28;8835;-79
2024/01/13 13:58:18;;;;;;;;;31.67;29.33;;;;;;;;5068483;28;11562;-80
2024/01/13 14:00:45;;;;;;;;;33.33;31.00;;;;;;;;5060295;28;9024;-75
2024/01/13 14:03:15;;;;;;;;;49.33;40.67;;;;;;;;5057225;28;8838;-76
2024/01/13 14:05:43;;;;;;;;;29.00;28.67;;;;;;;;5072552;28;8863;-75
2024/01/13 14:08:10;;;;;;;;;31.00;30.33;;;;;;;;5072487;28;9001;-79
2024/01/13 14:10:38;;;;;;;;;25.33;22.33;;;;;;;;5072697;28;8834;-79
2024/01/13 14:13:05;;;;;;;;;30.33;24.33;;;;;;;;5070948;28;8870;-74
2024/01/13 14:15:33;;;;;;;;;26.67;21.33;;;;;;;;5072333;28;11681;-80
2024/01/13 14:18:01;;;;;;;;;39.33;27.00;;;;;;;;5073018;28;8873;-78
2024/01/13 14:20:28;;;;;;;;;33.67;27.67;;;;;;;;5066214;28;8870;-77
2024/01/13 14:22:56;;;;;;;;;30.67;30.67;;;;;;;;5068088;28;8839;-78
2024/01/13 14:25:24;;;;;;;;;31.00;25.33;;;;;;;;5066836;28;11573;-77